sensor_id;sensor_type;location;lat;lon;timestamp;pressure;altitude;pressure_sealevel;temperature;humidity
64967;BME280;51710;38.732;-121.358;2023-02-17T00:01:27;101735.88;;;15.01;33.76
64967;BME280;51710;38.732;-121.358;2023-02-17T00:03:54;101735.03;;;15.00;33.76
64967;BME280;51710;38.732;-121.358;2023-02-17T00:06:23;101738.72;;;14.99;33.69
64967;BME280;51710;38.732;-121.358;2023-02-17T00:08:50;101736.66;;;14.93;34.40
64967;BME280;51710;38.732;-121.358;2023-02-17T00:11:17;101739.00;;;14.88;34.24
64967;BME280;51710;38.732;-121.358;2023-02-17T00:13:44;101734.94;;;14.84;34.43
64967;BME280;51710;38.732;-121.358;2023-02-17T00:16:18;101736.41;;;14.79;34.36
64967;BME280;51710;38.732;-121.358;2023-02-17T00:18:46;101732.56;;;14.73;34.65
64967;BME280;51710;38.732;-121.358;2023-02-17T00:21:19;101740.22;;;14.68;34.20
64967;BME280;51710;38.732;-121.358;2023-02-17T00:23:47;101735.66;;;14.60;34.27
64967;BME280;51710;38.732;-121.358;2023-02-17T00:26:15;101734.59;;;14.53;34.65
64967;BME280;51710;38.732;-121.358;2023-02-17T00:28:43;101742.13;;;14.50;34.54
64967;BME280;51710;38.732;-121.358;2023-02-17T00:31:13;101738.22;;;14.44;34.68
64967;BME280;51710;38.732;-121.358;2023-02-17T00:33:40;101742.22;;;14.40;34.34
64967;BME280;51710;38.732;-121.358;2023-02-17T00:36:10;101741.69;;;14.37;34.75
64967;BME280;51710;38.732;-121.358;2023-02-17T00:38:37;101739.47;;;14.32;34.86
64967;BME280;51710;38.732;-121.358;2023-02-17T00:41:04;101733.28;;;14.32;34.68
64967;BME280;51710;38.732;-121.358;2023-02-17T00:43:30;101730.91;;;14.29;34.73
64967;BME280;51710;38.732;-121.358;2023-02-17T00:45:57;101734.72;;;14.26;34.47
64967;BME280;51710;38.732;-121.358;2023-02-17T00:48:23;101739.53;;;14.23;34.96
64967;BME280;51710;38.732;-121.358;2023-02-17T00:50:49;101734.81;;;14.17;35.39
64967;BME280;51710;38.732;-121.358;2023-02-17T00:53:16;101727.91;;;14.14;35.29
64967;BME280;51710;38.732;-121.358;2023-02-17T00:55:42;101733.22;;;14.06;35.39
64967;BME280;51710;38.732;-121.358;2023-02-17T00:58:08;101731.31;;;13.99;35.96
64967;BME280;51710;38.732;-121.358;2023-02-17T01:00:35;101737.28;;;13.93;35.83
64967;BME280;51710;38.732;-121.358;2023-02-17T01:03:01;101732.91;;;13.92;35.37
64967;BME280;51710;38.732;-121.358;2023-02-17T01:05:27;101739.19;;;13.83;35.47
64967;BME280;51710;38.732;-121.358;2023-02-17T01:07:55;101738.81;;;13.78;35.78
64967;BME280;51710;38.732;-121.358;2023-02-17T01:10:22;101743.03;;;13.80;35.80
64967;BME280;51710;38.732;-121.358;2023-02-17T01:12:48;101732.00;;;13.83;35.48
64967;BME280;51710;38.732;-121.358;2023-02-17T01:15:15;101728.63;;;13.81;35.68
64967;BME280;51710;38.732;-121.358;2023-02-17T01:17:41;101731.47;;;13.80;35.80
64967;BME280;51710;38.732;-121.358;2023-02-17T01:20:08;101732.22;;;13.72;35.89
64967;BME280;51710;38.732;-121.358;2023-02-17T01:22:36;101732.00;;;13.66;35.71
64967;BME280;51710;38.732;-121.358;2023-02-17T01:25:03;101736.28;;;13.58;36.33
64967;BME280;51710;38.732;-121.358;2023-02-17T01:27:29;101732.50;;;13.51;36.96
64967;BME280;51710;38.732;-121.358;2023-02-17T01:29:56;101735.13;;;13.43;36.68
64967;BME280;51710;38.732;-121.358;2023-02-17T01:32:22;101741.06;;;13.37;36.68
64967;BME280;51710;38.732;-121.358;2023-02-17T01:34:48;101739.31;;;13.28;36.76
64967;BME280;51710;38.732;-121.358;2023-02-17T01:37:15;101749.88;;;13.20;36.90
64967;BME280;51710;38.732;-121.358;2023-02-17T01:39:41;101747.13;;;13.12;36.80
64967;BME280;51710;38.732;-121.358;2023-02-17T01:42:15;101748.97;;;13.02;36.83
64967;BME280;51710;38.732;-121.358;2023-02-17T01:50:16;101745.31;;;12.67;36.84
64967;BME280;51710;38.732;-121.358;2023-02-17T01:52:45;101749.28;;;12.53;37.43
64967;BME280;51710;38.732;-121.358;2023-02-17T01:55:14;101747.88;;;12.49;40.19
64967;BME280;51710;38.732;-121.358;2023-02-17T01:57:42;101748.19;;;12.36;40.67
64967;BME280;51710;38.732;-121.358;2023-02-17T02:00:11;101744.56;;;12.28;41.67
64967;BME280;51710;38.732;-121.358;2023-02-17T02:02:39;101742.16;;;12.15;42.03
64967;BME280;51710;38.732;-121.358;2023-02-17T02:05:07;101748.25;;;12.08;42.74
64967;BME280;51710;38.732;-121.358;2023-02-17T02:07:37;101743.88;;;11.97;43.45
64967;BME280;51710;38.732;-121.358;2023-02-17T02:10:06;101755.53;;;11.87;44.39
64967;BME280;51710;38.732;-121.358;2023-02-17T02:12:35;101761.72;;;11.78;44.46
64967;BME280;51710;38.732;-121.358;2023-02-17T02:15:26;101750.47;;;11.65;44.80
64967;BME280;51710;38.732;-121.358;2023-02-17T02:29:29;101751.34;;;11.25;46.51
64967;BME280;51710;38.732;-121.358;2023-02-17T02:34:58;101750.88;;;11.11;46.49
64967;BME280;51710;38.732;-121.358;2023-02-17T02:37:34;101760.66;;;11.01;47.04
64967;BME280;51710;38.732;-121.358;2023-02-17T02:40:05;101758.66;;;10.93;47.60
64967;BME280;51710;38.732;-121.358;2023-02-17T02:42:33;101764.53;;;10.87;47.36
64967;BME280;51710;38.732;-121.358;2023-02-17T02:45:00;101763.09;;;10.83;47.62
64967;BME280;51710;38.732;-121.358;2023-02-17T02:50:17;101758.84;;;10.71;47.69
64967;BME280;51710;38.732;-121.358;2023-02-17T02:53:02;101767.34;;;10.65;47.97
64967;BME280;51710;38.732;-121.358;2023-02-17T02:55:38;101762.44;;;10.61;47.98
64967;BME280;51710;38.732;-121.358;2023-02-17T03:01:23;101769.31;;;10.43;48.67
64967;BME280;51710;38.732;-121.358;2023-02-17T03:06:36;101763.03;;;10.23;49.26
64967;BME280;51710;38.732;-121.358;2023-02-17T03:09:12;101765.47;;;10.15;49.57
64967;BME280;51710;38.732;-121.358;2023-02-17T03:11:41;101773.25;;;10.07;49.81
64967;BME280;51710;38.732;-121.358;2023-02-17T03:14:10;101772.41;;;10.06;49.80
64967;BME280;51710;38.732;-121.358;2023-02-17T03:16:39;101768.06;;;10.05;50.12
64967;BME280;51710;38.732;-121.358;2023-02-17T03:19:06;101767.00;;;9.97;50.43
64967;BME280;51710;38.732;-121.358;2023-02-17T03:21:50;101761.28;;;9.81;50.95
64967;BME280;51710;38.732;-121.358;2023-02-17T03:24:18;101758.38;;;9.73;50.97
64967;BME280;51710;38.732;-121.358;2023-02-17T03:26:44;101754.56;;;9.66;50.60
64967;BME280;51710;38.732;-121.358;2023-02-17T03:29:10;101754.31;;;9.58;51.21
64967;BME280;51710;38.732;-121.358;2023-02-17T03:31:38;101765.94;;;9.57;51.25
64967;BME280;51710;38.732;-121.358;2023-02-17T03:34:05;101757.50;;;9.52;51.35
64967;BME280;51710;38.732;-121.358;2023-02-17T03:36:31;101749.75;;;9.49;51.64
64967;BME280;51710;38.732;-121.358;2023-02-17T03:38:58;101756.78;;;9.50;51.85
64967;BME280;51710;38.732;-121.358;2023-02-17T03:41:24;101756.19;;;9.46;51.80
64967;BME280;51710;38.732;-121.358;2023-02-17T03:43:51;101756.31;;;9.45;52.32
64967;BME280;51710;38.732;-121.358;2023-02-17T03:46:17;101758.38;;;9.41;52.39
64967;BME280;51710;38.732;-121.358;2023-02-17T03:48:44;101746.69;;;9.33;52.61
64967;BME280;51710;38.732;-121.358;2023-02-17T03:51:17;101747.75;;;9.30;52.75
64967;BME280;51710;38.732;-121.358;2023-02-17T03:53:44;101752.94;;;9.32;53.02
64967;BME280;51710;38.732;-121.358;2023-02-17T03:56:12;101750.41;;;9.30;52.97
64967;BME280;51710;38.732;-121.358;2023-02-17T03:58:39;101751.00;;;9.34;53.35
64967;BME280;51710;38.732;-121.358;2023-02-17T04:01:07;101752.69;;;9.35;53.59
64967;BME280;51710;38.732;-121.358;2023-02-17T04:03:34;101745.44;;;9.37;53.18
64967;BME280;51710;38.732;-121.358;2023-02-17T04:06:01;101751.47;;;9.39;53.33
64967;BME280;51710;38.732;-121.358;2023-02-17T04:08:28;101755.59;;;9.43;53.63
64967;BME280;51710;38.732;-121.358;2023-02-17T04:10:58;101758.97;;;9.45;53.43
64967;BME280;51710;38.732;-121.358;2023-02-17T04:13:25;101753.66;;;9.45;53.43
64967;BME280;51710;38.732;-121.358;2023-02-17T04:15:51;101748.81;;;9.50;53.50
64967;BME280;51710;38.732;-121.358;2023-02-17T04:18:19;101753.13;;;9.51;53.79
64967;BME280;51710;38.732;-121.358;2023-02-17T04:20:48;101750.47;;;9.51;53.52
64967;BME280;51710;38.732;-121.358;2023-02-17T04:23:16;101752.41;;;9.49;53.60
64967;BME280;51710;38.732;-121.358;2023-02-17T04:25:43;101749.03;;;9.47;53.75
64967;BME280;51710;38.732;-121.358;2023-02-17T04:28:10;101748.34;;;9.45;53.80
64967;BME280;51710;38.732;-121.358;2023-02-17T04:30:36;101749.41;;;9.42;53.53
64967;BME280;51710;38.732;-121.358;2023-02-17T04:33:03;101751.47;;;9.39;53.76
64967;BME280;51710;38.732;-121.358;2023-02-17T04:35:30;101749.66;;;9.39;54.04
64967;BME280;51710;38.732;-121.358;2023-02-17T04:37:56;101747.97;;;9.38;53.75
64967;BME280;51710;38.732;-121.358;2023-02-17T04:40:23;101748.81;;;9.39;53.92
64967;BME280;51710;38.732;-121.358;2023-02-17T04:42:49;101750.63;;;9.38;54.19
64967;BME280;51710;38.732;-121.358;2023-02-17T04:45:15;101752.47;;;9.38;54.18
64967;BME280;51710;38.732;-121.358;2023-02-17T04:47:42;101749.94;;;9.36;54.13
64967;BME280;51710;38.732;-121.358;2023-02-17T04:50:10;101741.34;;;9.33;54.41
64967;BME280;51710;38.732;-121.358;2023-02-17T04:52:36;101739.06;;;9.28;54.44
64967;BME280;51710;38.732;-121.358;2023-02-17T04:55:04;101748.97;;;9.26;54.84
64967;BME280;51710;38.732;-121.358;2023-02-17T04:57:30;101756.09;;;9.26;55.04
64967;BME280;51710;38.732;-121.358;2023-02-17T04:59:56;101745.34;;;9.27;55.08
64967;BME280;51710;38.732;-121.358;2023-02-17T05:02:23;101759.59;;;9.26;55.01
64967;BME280;51710;38.732;-121.358;2023-02-17T05:04:53;101750.28;;;9.21;54.84
64967;BME280;51710;38.732;-121.358;2023-02-17T05:07:20;101756.59;;;9.08;55.05
64967;BME280;51710;38.732;-121.358;2023-02-17T05:09:47;101751.53;;;8.94;55.32
64967;BME280;51710;38.732;-121.358;2023-02-17T05:12:13;101754.19;;;8.83;55.75
64967;BME280;51710;38.732;-121.358;2023-02-17T05:14:40;101759.03;;;8.78;56.03
64967;BME280;51710;38.732;-121.358;2023-02-17T05:17:06;101752.38;;;8.73;56.20
64967;BME280;51710;38.732;-121.358;2023-02-17T05:19:32;101752.72;;;8.68;56.57
64967;BME280;51710;38.732;-121.358;2023-02-17T05:21:59;101760.56;;;8.59;56.37
64967;BME280;51710;38.732;-121.358;2023-02-17T05:24:25;101758.88;;;8.47;56.77
64967;BME280;51710;38.732;-121.358;2023-02-17T05:26:51;101762.81;;;8.30;56.49
64967;BME280;51710;38.732;-121.358;2023-02-17T05:29:18;101770.81;;;8.18;56.88
64967;BME280;51710;38.732;-121.358;2023-02-17T05:31:44;101762.72;;;8.08;57.00
64967;BME280;51710;38.732;-121.358;2023-02-17T05:34:11;101763.41;;;7.99;57.65
64967;BME280;51710;38.732;-121.358;2023-02-17T05:36:38;101769.19;;;7.93;57.97
64967;BME280;51710;38.732;-121.358;2023-02-17T05:39:04;101767.84;;;7.87;57.98
64967;BME280;51710;38.732;-121.358;2023-02-17T05:41:31;101766.72;;;7.79;58.20
64967;BME280;51710;38.732;-121.358;2023-02-17T05:43:58;101764.84;;;7.68;58.76
64967;BME280;51710;38.732;-121.358;2023-02-17T05:46:24;101765.28;;;7.62;58.57
64967;BME280;51710;38.732;-121.358;2023-02-17T05:48:51;101764.66;;;7.59;59.28
64967;BME280;51710;38.732;-121.358;2023-02-17T05:51:17;101766.81;;;7.54;59.30
64967;BME280;51710;38.732;-121.358;2023-02-17T05:53:44;101767.28;;;7.48;59.18
64967;BME280;51710;38.732;-121.358;2023-02-17T05:56:10;101764.72;;;7.46;59.42
64967;BME280;51710;38.732;-121.358;2023-02-17T05:58:37;101770.88;;;7.47;59.69
64967;BME280;51710;38.732;-121.358;2023-02-17T06:01:07;101765.56;;;7.47;59.50
64967;BME280;51710;38.732;-121.358;2023-02-17T06:03:34;101765.28;;;7.39;59.87
64967;BME280;51710;38.732;-121.358;2023-02-17T06:06:00;101760.78;;;7.28;60.02
64967;BME280;51710;38.732;-121.358;2023-02-17T06:08:26;101765.66;;;7.22;59.99
64967;BME280;51710;38.732;-121.358;2023-02-17T06:10:53;101761.78;;;7.15;60.53
64967;BME280;51710;38.732;-121.358;2023-02-17T06:13:20;101764.50;;;7.13;60.29
64967;BME280;51710;38.732;-121.358;2023-02-17T06:15:47;101760.59;;;7.06;60.24
64967;BME280;51710;38.732;-121.358;2023-02-17T06:18:13;101760.41;;;6.97;60.18
64967;BME280;51710;38.732;-121.358;2023-02-17T06:20:40;101759.91;;;6.92;60.63
64967;BME280;51710;38.732;-121.358;2023-02-17T06:23:06;101761.28;;;6.84;60.41
64967;BME280;51710;38.732;-121.358;2023-02-17T06:25:32;101757.66;;;6.85;60.19
64967;BME280;51710;38.732;-121.358;2023-02-17T06:27:59;101760.31;;;6.85;60.45
64967;BME280;51710;38.732;-121.358;2023-02-17T06:30:25;101762.13;;;6.85;60.84
64967;BME280;51710;38.732;-121.358;2023-02-17T06:32:51;101758.75;;;6.83;60.86
64967;BME280;51710;38.732;-121.358;2023-02-17T06:35:18;101755.47;;;6.79;61.18
64967;BME280;51710;38.732;-121.358;2023-02-17T06:37:44;101759.06;;;6.78;61.36
64967;BME280;51710;38.732;-121.358;2023-02-17T06:40:11;101752.19;;;6.76;61.17
64967;BME280;51710;38.732;-121.358;2023-02-17T06:42:37;101762.16;;;6.72;61.01
64967;BME280;51710;38.732;-121.358;2023-02-17T06:45:04;101758.75;;;6.70;61.55
64967;BME280;51710;38.732;-121.358;2023-02-17T06:47:31;101757.91;;;6.70;61.81
64967;BME280;51710;38.732;-121.358;2023-02-17T06:49:58;101753.75;;;6.66;61.43
64967;BME280;51710;38.732;-121.358;2023-02-17T06:52:24;101765.19;;;6.66;61.32
64967;BME280;51710;38.732;-121.358;2023-02-17T06:54:51;101762.56;;;6.66;61.02
64967;BME280;51710;38.732;-121.358;2023-02-17T06:57:18;101769.34;;;6.70;61.51
64967;BME280;51710;38.732;-121.358;2023-02-17T06:59:44;101773.47;;;6.74;61.21
64967;BME280;51710;38.732;-121.358;2023-02-17T07:02:11;101768.72;;;6.67;60.97
64967;BME280;51710;38.732;-121.358;2023-02-17T07:04:39;101772.31;;;6.53;61.32
64967;BME280;51710;38.732;-121.358;2023-02-17T07:07:05;101778.22;;;6.44;61.73
64967;BME280;51710;38.732;-121.358;2023-02-17T07:09:32;101774.63;;;6.45;61.67
64967;BME280;51710;38.732;-121.358;2023-02-17T07:11:58;101778.22;;;6.44;62.08
64967;BME280;51710;38.732;-121.358;2023-02-17T07:14:25;101772.94;;;6.44;62.41
64967;BME280;51710;38.732;-121.358;2023-02-17T07:16:52;101776.94;;;6.37;62.05
64967;BME280;51710;38.732;-121.358;2023-02-17T07:19:19;101770.38;;;6.30;62.24
64967;BME280;51710;38.732;-121.358;2023-02-17T07:21:45;101777.78;;;6.25;62.11
64967;BME280;51710;38.732;-121.358;2023-02-17T07:24:11;101774.41;;;6.23;62.63
64967;BME280;51710;38.732;-121.358;2023-02-17T07:26:39;101778.19;;;6.19;62.87
64967;BME280;51710;38.732;-121.358;2023-02-17T07:29:06;101771.22;;;6.18;62.86
64967;BME280;51710;38.732;-121.358;2023-02-17T07:31:33;101776.41;;;6.20;62.01
64967;BME280;51710;38.732;-121.358;2023-02-17T07:34:01;101774.78;;;6.17;62.58
64967;BME280;51710;38.732;-121.358;2023-02-17T07:36:28;101776.63;;;6.17;62.74
64967;BME280;51710;38.732;-121.358;2023-02-17T07:38:54;101779.44;;;6.14;62.42
64967;BME280;51710;38.732;-121.358;2023-02-17T07:41:22;101792.97;;;6.09;63.16
64967;BME280;51710;38.732;-121.358;2023-02-17T07:43:56;101784.69;;;5.89;63.45
64967;BME280;51710;38.732;-121.358;2023-02-17T07:46:23;101793.66;;;5.72;63.92
64967;BME280;51710;38.732;-121.358;2023-02-17T07:48:49;101789.56;;;5.68;64.17
64967;BME280;51710;38.732;-121.358;2023-02-17T07:51:19;101795.38;;;5.73;64.50
64967;BME280;51710;38.732;-121.358;2023-02-17T07:53:46;101783.56;;;5.79;63.89
64967;BME280;51710;38.732;-121.358;2023-02-17T07:56:14;101799.59;;;5.75;63.98
64967;BME280;51710;38.732;-121.358;2023-02-17T07:58:42;101798.41;;;5.67;64.32
64967;BME280;51710;38.732;-121.358;2023-02-17T08:01:17;101801.25;;;5.64;65.04
64967;BME280;51710;38.732;-121.358;2023-02-17T08:03:45;101799.16;;;5.69;65.18
64967;BME280;51710;38.732;-121.358;2023-02-17T08:06:17;101805.75;;;5.76;65.09
64967;BME280;51710;38.732;-121.358;2023-02-17T08:08:44;101803.84;;;5.78;64.79
64967;BME280;51710;38.732;-121.358;2023-02-17T08:11:30;101796.84;;;5.77;64.49
64967;BME280;51710;38.732;-121.358;2023-02-17T08:14:14;101802.25;;;5.75;65.11
64967;BME280;51710;38.732;-121.358;2023-02-17T08:16:41;101803.19;;;5.74;65.33
64967;BME280;51710;38.732;-121.358;2023-02-17T08:19:08;101795.38;;;5.73;65.17
64967;BME280;51710;38.732;-121.358;2023-02-17T08:21:34;101793.78;;;5.70;65.31
64967;BME280;51710;38.732;-121.358;2023-02-17T08:24:00;101798.03;;;5.73;65.43
64967;BME280;51710;38.732;-121.358;2023-02-17T08:26:27;101790.31;;;5.70;65.23
64967;BME280;51710;38.732;-121.358;2023-02-17T08:28:54;101801.06;;;5.67;65.11
64967;BME280;51710;38.732;-121.358;2023-02-17T08:31:24;101801.91;;;5.67;64.88
64967;BME280;51710;38.732;-121.358;2023-02-17T08:33:51;101799.16;;;5.69;65.04
64967;BME280;51710;38.732;-121.358;2023-02-17T08:36:18;101810.59;;;5.69;64.84
64967;BME280;51710;38.732;-121.358;2023-02-17T08:38:47;101804.44;;;5.69;64.87
64967;BME280;51710;38.732;-121.358;2023-02-17T08:41:25;101799.00;;;5.58;64.43
64967;BME280;51710;38.732;-121.358;2023-02-17T08:43:55;101803.63;;;5.54;65.02
64967;BME280;51710;38.732;-121.358;2023-02-17T08:46:22;101799.97;;;5.57;64.95
64967;BME280;51710;38.732;-121.358;2023-02-17T08:48:48;101793.38;;;5.50;64.99
64967;BME280;51710;38.732;-121.358;2023-02-17T08:51:17;101812.09;;;5.33;65.17
64967;BME280;51710;38.732;-121.358;2023-02-17T08:53:49;101811.56;;;5.14;65.76
64967;BME280;51710;38.732;-121.358;2023-02-17T08:56:15;101805.72;;;4.95;66.29
64967;BME280;51710;38.732;-121.358;2023-02-17T08:58:42;101806.38;;;4.84;66.12
64967;BME280;51710;38.732;-121.358;2023-02-17T09:01:08;101806.75;;;4.78;66.78
64967;BME280;51710;38.732;-121.358;2023-02-17T09:03:36;101805.91;;;4.78;66.92
64967;BME280;51710;38.732;-121.358;2023-02-17T09:06:05;101811.00;;;4.81;66.88
64967;BME280;51710;38.732;-121.358;2023-02-17T09:08:32;101802.13;;;4.82;67.12
64967;BME280;51710;38.732;-121.358;2023-02-17T09:10:59;101802.03;;;4.83;67.34
64967;BME280;51710;38.732;-121.358;2023-02-17T09:13:26;101810.03;;;4.82;67.36
64967;BME280;51710;38.732;-121.358;2023-02-17T09:15:53;101800.25;;;4.84;67.14
64967;BME280;51710;38.732;-121.358;2023-02-17T09:18:22;101804.66;;;4.83;66.86
64967;BME280;51710;38.732;-121.358;2023-02-17T09:20:49;101799.69;;;4.79;66.85
64967;BME280;51710;38.732;-121.358;2023-02-17T09:23:16;101800.03;;;4.73;67.11
64967;BME280;51710;38.732;-121.358;2023-02-17T09:25:42;101799.31;;;4.71;67.05
64967;BME280;51710;38.732;-121.358;2023-02-17T09:28:10;101798.81;;;4.64;67.22
64967;BME280;51710;38.732;-121.358;2023-02-17T09:30:39;101798.63;;;4.53;67.81
64967;BME280;51710;38.732;-121.358;2023-02-17T09:33:05;101806.13;;;4.45;67.69
64967;BME280;51710;38.732;-121.358;2023-02-17T09:35:32;101812.63;;;4.39;68.12
64967;BME280;51710;38.732;-121.358;2023-02-17T09:37:59;101812.03;;;4.34;68.06
64967;BME280;51710;38.732;-121.358;2023-02-17T09:40:46;101811.56;;;4.28;68.43
64967;BME280;51710;38.732;-121.358;2023-02-17T09:43:16;101801.47;;;4.20;68.86
64967;BME280;51710;38.732;-121.358;2023-02-17T09:45:49;101798.94;;;4.19;68.80
64967;BME280;51710;38.732;-121.358;2023-02-17T09:48:19;101804.38;;;4.16;68.88
64967;BME280;51710;38.732;-121.358;2023-02-17T09:51:05;101794.69;;;4.16;69.19
64967;BME280;51710;38.732;-121.358;2023-02-17T09:53:49;101799.78;;;4.19;68.82
64967;BME280;51710;38.732;-121.358;2023-02-17T09:56:22;101791.97;;;4.18;68.46
64967;BME280;51710;38.732;-121.358;2023-02-17T09:58:53;101796.75;;;4.11;68.54
64967;BME280;51710;38.732;-121.358;2023-02-17T10:01:25;101796.09;;;4.08;68.70
64967;BME280;51710;38.732;-121.358;2023-02-17T10:07:04;101799.50;;;3.94;68.92
64967;BME280;51710;38.732;-121.358;2023-02-17T10:09:38;101793.75;;;3.88;68.94
64967;BME280;51710;38.732;-121.358;2023-02-17T10:12:14;101800.22;;;3.82;69.20
64967;BME280;51710;38.732;-121.358;2023-02-17T10:14:57;101793.25;;;3.81;69.01
64967;BME280;51710;38.732;-121.358;2023-02-17T10:17:48;101803.78;;;3.81;69.29
64967;BME280;51710;38.732;-121.358;2023-02-17T10:20:21;101791.53;;;3.80;69.36
64967;BME280;51710;38.732;-121.358;2023-02-17T10:23:03;101789.84;;;3.79;69.58
64967;BME280;51710;38.732;-121.358;2023-02-17T10:28:51;101785.28;;;3.67;69.23
64967;BME280;51710;38.732;-121.358;2023-02-17T10:39:46;101770.53;;;3.33;69.56
64967;BME280;51710;38.732;-121.358;2023-02-17T10:42:29;101766.47;;;3.28;70.06
64967;BME280;51710;38.732;-121.358;2023-02-17T10:45:04;101764.28;;;3.20;70.10
64967;BME280;51710;38.732;-121.358;2023-02-17T10:47:31;101756.19;;;3.23;69.75
64967;BME280;51710;38.732;-121.358;2023-02-17T10:49:59;101766.81;;;3.22;69.83
64967;BME280;51710;38.732;-121.358;2023-02-17T10:52:35;101756.47;;;3.19;70.23
64967;BME280;51710;38.732;-121.358;2023-02-17T10:58:32;101745.94;;;3.19;70.09
64967;BME280;51710;38.732;-121.358;2023-02-17T11:00:59;101748.56;;;3.19;70.29
64967;BME280;51710;38.732;-121.358;2023-02-17T11:03:29;101758.16;;;3.20;69.79
64967;BME280;51710;38.732;-121.358;2023-02-17T11:06:02;101760.19;;;3.15;70.06
64967;BME280;51710;38.732;-121.358;2023-02-17T11:08:48;101753.22;;;3.14;70.36
64967;BME280;51710;38.732;-121.358;2023-02-17T11:11:16;101752.22;;;3.16;70.75
64967;BME280;51710;38.732;-121.358;2023-02-17T11:16:26;101753.22;;;3.14;70.20
64967;BME280;51710;38.732;-121.358;2023-02-17T11:18:54;101736.06;;;3.07;70.53
64967;BME280;51710;38.732;-121.358;2023-02-17T11:21:20;101741.50;;;3.04;70.77
64967;BME280;51710;38.732;-121.358;2023-02-17T11:23:53;101742.53;;;3.01;70.34
64967;BME280;51710;38.732;-121.358;2023-02-17T11:26:28;101731.47;;;2.95;70.54
64967;BME280;51710;38.732;-121.358;2023-02-17T11:29:23;101728.25;;;2.90;70.54
64967;BME280;51710;38.732;-121.358;2023-02-17T11:31:59;101725.72;;;2.88;71.00
64967;BME280;51710;38.732;-121.358;2023-02-17T11:34:30;101720.38;;;2.90;70.40
64967;BME280;51710;38.732;-121.358;2023-02-17T11:39:43;101716.72;;;2.77;71.08
64967;BME280;51710;38.732;-121.358;2023-02-17T11:42:36;101723.66;;;2.78;70.96
64967;BME280;51710;38.732;-121.358;2023-02-17T11:45:27;101714.88;;;2.79;70.74
64967;BME280;51710;38.732;-121.358;2023-02-17T11:48:27;101719.94;;;2.82;71.15
64967;BME280;51710;38.732;-121.358;2023-02-17T11:53:51;101724.19;;;2.84;70.88
64967;BME280;51710;38.732;-121.358;2023-02-17T11:56:28;101716.72;;;2.77;70.00
64967;BME280;51710;38.732;-121.358;2023-02-17T12:13:01;101712.47;;;2.74;71.13
64967;BME280;51710;38.732;-121.358;2023-02-17T12:20:55;101709.16;;;2.71;70.59
64967;BME280;51710;38.732;-121.358;2023-02-17T12:27:35;101705.34;;;2.61;71.04
64967;BME280;51710;38.732;-121.358;2023-02-17T12:29:42;101705.94;;;2.66;70.76
64967;BME280;51710;38.732;-121.358;2023-02-17T12:32:17;101709.25;;;2.69;70.49
64967;BME280;51710;38.732;-121.358;2023-02-17T12:34:57;101711.44;;;2.61;70.99
64967;BME280;51710;38.732;-121.358;2023-02-17T12:37:29;101698.88;;;2.51;70.88
64967;BME280;51710;38.732;-121.358;2023-02-17T12:42:47;101697.38;;;2.29;71.09
64967;BME280;51710;38.732;-121.358;2023-02-17T12:45:19;101697.69;;;2.23;71.71
64967;BME280;51710;38.732;-121.358;2023-02-17T12:47:58;101713.03;;;2.15;71.97
64967;BME280;51710;38.732;-121.358;2023-02-17T12:50:37;101715.03;;;2.10;72.51
64967;BME280;51710;38.732;-121.358;2023-02-17T12:55:56;101717.34;;;1.99;72.86
64967;BME280;51710;38.732;-121.358;2023-02-17T12:58:26;101710.63;;;1.94;73.31
64967;BME280;51710;38.732;-121.358;2023-02-17T13:01:02;101716.91;;;1.91;73.63
64967;BME280;51710;38.732;-121.358;2023-02-17T13:03:31;101708.16;;;1.91;73.26
64967;BME280;51710;38.732;-121.358;2023-02-17T13:06:18;101709.84;;;1.92;73.01
64967;BME280;51710;38.732;-121.358;2023-02-17T13:09:02;101711.41;;;1.96;73.71
64967;BME280;51710;38.732;-121.358;2023-02-17T13:11:34;101704.84;;;2.04;73.74
64967;BME280;51710;38.732;-121.358;2023-02-17T13:14:24;101709.44;;;2.16;73.93
64967;BME280;51710;38.732;-121.358;2023-02-17T13:16:50;101702.81;;;2.26;73.91
64967;BME280;51710;38.732;-121.358;2023-02-17T13:19:30;101706.03;;;2.32;73.55
64967;BME280;51710;38.732;-121.358;2023-02-17T13:21:58;101698.69;;;2.38;73.86
64967;BME280;51710;38.732;-121.358;2023-02-17T13:24:36;101704.38;;;2.46;73.57
64967;BME280;51710;38.732;-121.358;2023-02-17T13:27:20;101704.13;;;2.51;73.59
64967;BME280;51710;38.732;-121.358;2023-02-17T13:30:29;101700.06;;;2.61;74.34
64967;BME280;51710;38.732;-121.358;2023-02-17T13:35:35;101703.31;;;2.66;74.23
64967;BME280;51710;38.732;-121.358;2023-02-17T13:38:02;101692.78;;;2.66;74.38
64967;BME280;51710;38.732;-121.358;2023-02-17T13:43:14;101703.31;;;2.66;74.21
64967;BME280;51710;38.732;-121.358;2023-02-17T13:45:48;101696.19;;;2.68;74.84
64967;BME280;51710;38.732;-121.358;2023-02-17T13:50:49;101695.78;;;2.75;74.36
64967;BME280;51710;38.732;-121.358;2023-02-17T13:53:25;101693.19;;;2.74;74.89
64967;BME280;51710;38.732;-121.358;2023-02-17T13:55:54;101696.59;;;2.76;74.90
64967;BME280;51710;38.732;-121.358;2023-02-17T13:58:23;101697.56;;;2.75;74.46
64967;BME280;51710;38.732;-121.358;2023-02-17T14:00:50;101694.16;;;2.73;74.99
64967;BME280;51710;38.732;-121.358;2023-02-17T14:05:56;101694.91;;;2.75;74.55
64967;BME280;51710;38.732;-121.358;2023-02-17T14:10:52;101686.34;;;2.71;74.23
64967;BME280;51710;38.732;-121.358;2023-02-17T14:13:19;101687.53;;;2.66;74.49
64967;BME280;51710;38.732;-121.358;2023-02-17T14:15:56;101691.19;;;2.63;74.91
64967;BME280;51710;38.732;-121.358;2023-02-17T14:18:39;101688.47;;;2.65;74.94